createdAt,value
2019-03-08T00:00:06.609Z,0
2019-03-08T00:01:16.335Z,0
2019-03-08T00:02:26.307Z,0
2019-03-08T00:03:36.306Z,0
2019-03-08T00:04:46.039Z,0
2019-03-08T00:05:55.580Z,0
2019-03-08T00:07:05.581Z,0
2019-03-08T00:08:15.557Z,0
2019-03-08T00:09:25.295Z,0
2019-03-08T00:10:35.316Z,0
2019-03-08T00:11:45.294Z,0
2019-03-08T00:12:55.282Z,0
2019-03-08T00:14:05.280Z,0
2019-03-08T00:15:15.272Z,0
2019-03-08T00:16:25.268Z,0
2019-03-08T00:17:35.255Z,0
2019-03-08T00:18:44.987Z,0
2019-03-08T00:19:55.021Z,0
2019-03-08T00:21:05.010Z,0
2019-03-08T00:22:14.829Z,0
2019-03-08T00:23:25.042Z,0
2019-03-08T00:24:35.683Z,0
2019-03-08T00:25:46.314Z,0
2019-03-08T00:26:56.464Z,0
2019-03-08T00:28:07.937Z,0
2019-03-08T00:29:17.895Z,0
2019-03-08T00:30:28.070Z,0
2019-03-08T00:31:38.050Z,0
2019-03-08T00:32:48.031Z,0
2019-03-08T00:33:57.778Z,0
2019-03-08T00:35:07.879Z,0
2019-03-08T00:36:17.962Z,0
2019-03-08T00:37:27.680Z,0
2019-03-08T00:38:37.163Z,0
2019-03-08T00:39:47.191Z,0
2019-03-08T00:40:57.208Z,0
2019-03-08T00:42:07.188Z,0
2019-03-08T00:43:17.145Z,0
2019-03-08T00:44:26.884Z,0
2019-03-08T00:45:36.880Z,0
2019-03-08T00:46:46.856Z,0
2019-03-08T00:47:56.838Z,0
2019-03-08T00:49:08.070Z,0
2019-03-08T00:50:18.232Z,0
2019-03-08T00:51:28.223Z,0
2019-03-08T00:52:40.209Z,0
2019-03-08T00:53:49.942Z,0
2019-03-08T00:54:59.921Z,0
2019-03-08T00:56:09.727Z,0
2019-03-08T00:57:19.489Z,0
2019-03-08T00:58:29.246Z,0
2019-03-08T00:59:39.119Z,0
2019-03-08T01:00:48.842Z,0
2019-03-08T01:01:58.330Z,0
2019-03-08T01:03:08.648Z,0
2019-03-08T01:04:18.742Z,0
2019-03-08T01:05:30.156Z,0
2019-03-08T01:06:40.003Z,0
2019-03-08T01:07:49.742Z,0
2019-03-08T01:08:58.976Z,0
2019-03-08T01:10:08.711Z,0
2019-03-08T01:11:18.708Z,0
2019-03-08T01:12:28.674Z,0
2019-03-08T01:13:38.660Z,0
2019-03-08T01:14:48.656Z,0
2019-03-08T01:15:58.915Z,0
2019-03-08T01:17:08.948Z,0
2019-03-08T01:18:19.457Z,0
2019-03-08T01:19:29.935Z,0
2019-03-08T01:20:40.414Z,0
2019-03-08T01:21:50.690Z,0
2019-03-08T01:23:00.814Z,0
2019-03-08T01:24:10.683Z,0
2019-03-08T01:25:21.551Z,0
2019-03-08T01:26:31.340Z,0
2019-03-08T01:27:41.333Z,0
2019-03-08T01:28:51.313Z,0
2019-03-08T01:30:00.791Z,0
2019-03-08T01:31:10.045Z,0
2019-03-08T01:32:19.522Z,0
2019-03-08T01:33:29.040Z,0
2019-03-08T01:34:39.027Z,0
2019-03-08T01:35:48.781Z,0
2019-03-08T01:36:58.520Z,0
2019-03-08T01:38:08.246Z,0
2019-03-08T01:39:17.990Z,0
2019-03-08T01:40:28.483Z,0
2019-03-08T01:41:38.459Z,0
2019-03-08T01:42:50.518Z,0
2019-03-08T01:44:00.259Z,0
2019-03-08T01:45:11.025Z,0
2019-03-08T01:46:21.013Z,0
2019-03-08T01:47:30.986Z,0
2019-03-08T01:48:40.973Z,0
2019-03-08T01:49:50.948Z,0
2019-03-08T01:51:00.429Z,0
2019-03-08T01:52:10.176Z,0
2019-03-08T01:53:19.916Z,0
2019-03-08T01:54:29.919Z,0
2019-03-08T01:55:39.927Z,0
2019-03-08T01:56:50.153Z,0
2019-03-08T01:57:59.889Z,0
2019-03-08T01:59:09.645Z,0
2019-03-08T02:00:19.881Z,0
2019-03-08T02:01:29.615Z,0
2019-03-08T02:02:39.619Z,0
2019-03-08T02:03:49.608Z,0
2019-03-08T02:04:59.590Z,0
2019-03-08T02:06:09.581Z,0
2019-03-08T02:07:19.334Z,0
2019-03-08T02:08:29.381Z,0
2019-03-08T02:09:39.381Z,0
2019-03-08T02:10:49.836Z,0
2019-03-08T02:12:00.244Z,0
2019-03-08T02:13:10.884Z,0
2019-03-08T02:14:21.154Z,0
2019-03-08T02:15:31.224Z,0
2019-03-08T02:16:41.315Z,0
2019-03-08T02:17:50.733Z,0
2019-03-08T02:19:00.791Z,0
2019-03-08T02:20:10.773Z,0
2019-03-08T02:21:20.760Z,0
2019-03-08T02:22:30.885Z,0
2019-03-08T02:23:40.874Z,0
2019-03-08T02:24:50.611Z,0
2019-03-08T02:26:00.606Z,0
2019-03-08T02:27:10.341Z,0
2019-03-08T02:28:20.327Z,0
2019-03-08T02:29:30.351Z,0
2019-03-08T02:30:40.355Z,0
2019-03-08T02:31:50.353Z,0
2019-03-08T02:33:00.093Z,0
2019-03-08T02:34:09.821Z,0
2019-03-08T02:35:19.840Z,0
2019-03-08T02:36:29.817Z,0
2019-03-08T02:37:39.571Z,0
2019-03-08T02:38:49.297Z,0
2019-03-08T02:39:59.019Z,0
2019-03-08T02:41:08.741Z,0
2019-03-08T02:42:18.722Z,0
2019-03-08T02:43:28.475Z,0
2019-03-08T02:44:38.449Z,0
2019-03-08T02:45:48.214Z,0
2019-03-08T02:46:57.939Z,0
2019-03-08T02:48:07.960Z,0
2019-03-08T02:49:17.457Z,0
2019-03-08T02:50:27.443Z,0
2019-03-08T02:51:37.231Z,0
2019-03-08T02:52:46.979Z,0
2019-03-08T02:53:56.971Z,0
2019-03-08T02:55:06.196Z,0
2019-03-08T02:56:15.935Z,0
2019-03-08T02:57:25.680Z,0
2019-03-08T02:58:35.665Z,0
2019-03-08T02:59:45.656Z,0
2019-03-08T03:00:55.650Z,0
2019-03-08T03:02:05.625Z,0
2019-03-08T03:03:15.623Z,0
2019-03-08T03:04:25.640Z,0
2019-03-08T03:05:35.838Z,0
2019-03-08T03:06:47.117Z,0
2019-03-08T03:07:58.081Z,0
2019-03-08T03:09:08.148Z,0
2019-03-08T03:10:18.362Z,0
2019-03-08T03:11:28.547Z,0
2019-03-08T03:12:38.016Z,0
2019-03-08T03:13:48.021Z,0
2019-03-08T03:14:57.507Z,0
2019-03-08T03:16:07.235Z,0
2019-03-08T03:17:16.966Z,0
2019-03-08T03:18:26.698Z,0
2019-03-08T03:19:36.663Z,0
2019-03-08T03:20:46.201Z,0
2019-03-08T03:21:56.182Z,0
2019-03-08T03:23:06.165Z,0
2019-03-08T03:24:16.148Z,0
2019-03-08T03:25:26.126Z,0
2019-03-08T03:26:35.849Z,0
2019-03-08T03:27:45.825Z,0
2019-03-08T03:28:55.581Z,0
2019-03-08T03:30:05.584Z,0
2019-03-08T03:31:15.343Z,0
2019-03-08T03:32:25.354Z,0
2019-03-08T03:33:35.350Z,0
2019-03-08T03:34:45.345Z,0
2019-03-08T03:35:55.100Z,0
2019-03-08T03:37:04.812Z,0
2019-03-08T03:38:14.562Z,0
2019-03-08T03:39:24.542Z,0
2019-03-08T03:40:34.562Z,0
2019-03-08T03:41:44.059Z,0
2019-03-08T03:42:53.807Z,0
2019-03-08T03:44:03.782Z,0
2019-03-08T03:45:13.768Z,0
2019-03-08T03:46:23.768Z,0
2019-03-08T03:47:33.742Z,0
2019-03-08T03:48:43.474Z,0
2019-03-08T03:49:53.491Z,0
2019-03-08T03:51:03.217Z,0
2019-03-08T03:52:13.201Z,0
2019-03-08T03:53:22.424Z,0
2019-03-08T03:54:32.406Z,0
2019-03-08T03:55:41.890Z,0
2019-03-08T03:56:53.530Z,0
2019-03-08T03:58:03.613Z,0
2019-03-08T03:59:13.342Z,0
2019-03-08T04:00:23.346Z,0
2019-03-08T04:01:33.314Z,0
2019-03-08T04:02:43.538Z,0
2019-03-08T04:03:54.124Z,0
2019-03-08T04:05:04.483Z,0
2019-03-08T04:06:14.656Z,0
2019-03-08T04:07:25.081Z,0
2019-03-08T04:08:35.448Z,0
2019-03-08T04:09:45.646Z,0
2019-03-08T04:10:55.488Z,0
2019-03-08T04:12:05.494Z,0
2019-03-08T04:13:15.478Z,0
2019-03-08T04:14:24.958Z,0
2019-03-08T04:15:34.724Z,0
2019-03-08T04:16:44.720Z,0
2019-03-08T04:17:54.716Z,0
2019-03-08T04:19:04.728Z,0
2019-03-08T04:20:14.713Z,0
2019-03-08T04:21:24.690Z,0
2019-03-08T04:22:34.167Z,0
2019-03-08T04:23:43.910Z,0
2019-03-08T04:24:53.653Z,0
2019-03-08T04:26:03.399Z,0
2019-03-08T04:27:13.146Z,0
2019-03-08T04:28:23.147Z,0
2019-03-08T04:29:33.122Z,0
2019-03-08T04:30:42.830Z,0
2019-03-08T04:31:52.305Z,0
2019-03-08T04:33:02.278Z,0
2019-03-08T04:34:13.411Z,0
2019-03-08T04:35:23.393Z,0
2019-03-08T04:36:35.124Z,0
2019-03-08T04:37:45.109Z,0
2019-03-08T04:38:54.350Z,0
2019-03-08T04:40:04.360Z,0
2019-03-08T04:41:14.343Z,0
2019-03-08T04:42:24.319Z,0
2019-03-08T04:43:34.288Z,0
2019-03-08T04:44:44.306Z,0
2019-03-08T04:45:54.285Z,0
2019-03-08T04:47:03.517Z,0
2019-03-08T04:48:13.234Z,0
2019-03-08T04:49:23.213Z,0
2019-03-08T04:50:32.948Z,0
2019-03-08T04:51:42.932Z,0
2019-03-08T04:52:52.908Z,0
2019-03-08T04:54:02.641Z,0
2019-03-08T04:55:12.623Z,0
2019-03-08T04:56:22.102Z,0
2019-03-08T04:57:31.581Z,0
2019-03-08T04:58:41.582Z,0
2019-03-08T04:59:51.580Z,0
2019-03-08T05:01:01.552Z,0
2019-03-08T05:02:11.537Z,0
2019-03-08T05:03:21.699Z,0
2019-03-08T05:04:32.393Z,0
2019-03-08T05:05:42.856Z,0
2019-03-08T05:06:53.152Z,0
2019-03-08T05:08:03.289Z,0
2019-03-08T05:09:13.483Z,0
2019-03-08T05:10:23.375Z,0
2019-03-08T05:11:33.132Z,0
2019-03-08T05:12:43.151Z,0
2019-03-08T05:13:53.154Z,0
2019-03-08T05:15:03.123Z,0
2019-03-08T05:16:12.619Z,0
2019-03-08T05:17:22.597Z,0
2019-03-08T05:18:33.054Z,0
2019-03-08T05:19:43.112Z,0
2019-03-08T05:20:52.837Z,0
2019-03-08T05:22:02.352Z,0
2019-03-08T05:23:12.330Z,0
2019-03-08T05:24:22.350Z,0
2019-03-08T05:25:32.352Z,0
2019-03-08T05:26:41.824Z,0
2019-03-08T05:27:51.611Z,0
2019-03-08T05:29:01.097Z,0
2019-03-08T05:30:11.094Z,0
2019-03-08T05:31:21.263Z,0
2019-03-08T05:32:31.270Z,0
2019-03-08T05:33:41.006Z,0
2019-03-08T05:34:50.507Z,0
2019-03-08T05:36:00.218Z,0
2019-03-08T05:37:09.715Z,0
2019-03-08T05:38:19.703Z,0
2019-03-08T05:39:29.690Z,0
2019-03-08T05:40:39.687Z,0
2019-03-08T05:41:49.432Z,0
2019-03-08T05:42:59.406Z,5
2019-03-08T05:44:08.673Z,5
2019-03-08T05:45:18.415Z,5
2019-03-08T05:46:28.399Z,5
2019-03-08T05:47:38.386Z,5
2019-03-08T05:48:48.383Z,5
2019-03-08T05:49:58.371Z,5
2019-03-08T05:51:08.354Z,5
2019-03-08T05:52:17.606Z,5
2019-03-08T05:53:27.605Z,5
2019-03-08T05:54:37.588Z,5
2019-03-08T05:55:47.585Z,5
2019-03-08T05:56:57.477Z,10
2019-03-08T05:58:07.241Z,10
2019-03-08T05:59:17.229Z,10
2019-03-08T06:00:38.229Z,10
2019-03-08T06:01:48.391Z,10
2019-03-08T06:02:58.612Z,10
2019-03-08T06:04:09.002Z,10
2019-03-08T06:05:19.263Z,10
2019-03-08T06:06:30.949Z,15
2019-03-08T06:07:40.673Z,15
2019-03-08T06:08:50.667Z,15
2019-03-08T06:10:00.656Z,15
2019-03-08T06:11:10.646Z,15
2019-03-08T06:12:20.640Z,20
2019-03-08T06:13:30.625Z,25
2019-03-08T06:14:40.360Z,25
2019-03-08T06:15:50.090Z,25
2019-03-08T06:17:00.075Z,30
2019-03-08T06:18:10.081Z,30
2019-03-08T06:19:20.061Z,30
2019-03-08T06:20:30.073Z,30
2019-03-08T06:21:40.070Z,30
2019-03-08T06:22:49.815Z,30
2019-03-08T06:23:59.809Z,30
2019-03-08T06:25:09.890Z,35
2019-03-08T06:26:19.870Z,40
2019-03-08T06:27:29.606Z,35
2019-03-08T06:28:39.760Z,35
2019-03-08T06:29:49.724Z,40
2019-03-08T06:30:59.717Z,40
2019-03-08T06:32:09.469Z,45
2019-03-08T06:33:19.459Z,50
2019-03-08T06:34:29.205Z,55
2019-03-08T06:35:39.204Z,55
2019-03-08T06:36:48.451Z,65
2019-03-08T06:37:58.208Z,65
2019-03-08T06:39:08.188Z,60
2019-03-08T06:40:17.923Z,50
2019-03-08T06:41:27.916Z,55
2019-03-08T06:42:37.647Z,55
2019-03-08T06:43:47.633Z,55
2019-03-08T06:44:57.628Z,60
2019-03-08T06:46:07.371Z,60
2019-03-08T06:47:16.854Z,65
2019-03-08T06:48:26.845Z,65
2019-03-08T06:49:36.816Z,70
2019-03-08T06:50:46.820Z,65
2019-03-08T06:51:56.801Z,55
2019-03-08T06:53:06.817Z,55
2019-03-08T06:54:16.331Z,55
2019-03-08T06:55:25.580Z,45
2019-03-08T06:56:35.084Z,40
2019-03-08T06:57:45.098Z,40
2019-03-08T06:58:55.118Z,45
2019-03-08T07:00:05.123Z,45
2019-03-08T07:01:14.612Z,45
2019-03-08T07:02:24.097Z,50
2019-03-08T07:03:33.591Z,55
2019-03-08T07:04:43.072Z,50
2019-03-08T07:05:53.278Z,50
2019-03-08T07:07:03.408Z,50
2019-03-08T07:08:13.753Z,55
2019-03-08T07:09:24.580Z,55
2019-03-08T07:10:35.215Z,55
2019-03-08T07:11:45.755Z,50
2019-03-08T07:13:05.173Z,40
2019-03-08T07:14:14.930Z,40
2019-03-08T07:15:24.945Z,35
2019-03-08T07:16:34.665Z,40
2019-03-08T07:17:44.415Z,45
2019-03-08T07:18:54.177Z,40
2019-03-08T07:20:03.904Z,40
2019-03-08T07:21:13.902Z,35
2019-03-08T07:22:23.891Z,35
2019-03-08T07:23:37.718Z,35
2019-03-08T07:24:47.713Z,35
2019-03-08T07:26:02.050Z,35
2019-03-08T07:27:12.030Z,35
2019-03-08T07:28:22.034Z,40
2019-03-08T07:29:32.009Z,40
2019-03-08T07:30:42.004Z,45
2019-03-08T07:31:51.735Z,45
2019-03-08T07:33:01.479Z,45
2019-03-08T07:34:12.783Z,45
2019-03-08T07:35:22.519Z,50
2019-03-08T07:36:34.175Z,50
2019-03-08T07:37:45.101Z,55
2019-03-08T07:38:54.837Z,60
2019-03-08T07:40:04.589Z,60
2019-03-08T07:41:14.314Z,65
2019-03-08T07:42:24.342Z,65
2019-03-08T07:43:34.098Z,65
2019-03-08T07:44:44.090Z,65
2019-03-08T07:45:54.090Z,60
2019-03-08T07:47:04.081Z,60
2019-03-08T07:48:14.074Z,65
2019-03-08T07:49:25.078Z,60
2019-03-08T07:50:35.784Z,60
2019-03-08T07:51:46.432Z,65
2019-03-08T07:52:56.637Z,70
2019-03-08T07:54:06.863Z,75
2019-03-08T07:55:17.223Z,70
2019-03-08T07:56:27.161Z,70
2019-03-08T07:57:36.944Z,75
2019-03-08T07:58:46.687Z,80
2019-03-08T08:00:03.079Z,75
2019-03-08T08:01:13.101Z,80
2019-03-08T08:02:23.113Z,80
2019-03-08T08:03:32.872Z,80
2019-03-08T08:04:42.875Z,90
2019-03-08T08:06:02.220Z,85
2019-03-08T08:07:11.477Z,95
2019-03-08T08:08:21.493Z,100
2019-03-08T08:09:31.232Z,110
2019-03-08T08:10:40.976Z,115
2019-03-08T08:11:50.973Z,125
2019-03-08T08:13:00.945Z,135
2019-03-08T08:14:10.959Z,135
2019-03-08T08:15:20.964Z,155
2019-03-08T08:16:30.707Z,195
2019-03-08T08:17:40.704Z,140
2019-03-08T08:18:50.734Z,105
2019-03-08T08:20:00.470Z,75
2019-03-08T08:21:10.897Z,65
2019-03-08T08:22:21.672Z,60
2019-03-08T08:23:42.702Z,55
2019-03-08T08:24:53.137Z,50
2019-03-08T08:26:03.614Z,45
2019-03-08T08:27:14.093Z,45
2019-03-08T08:28:23.975Z,45
2019-03-08T08:29:42.066Z,50
2019-03-08T08:30:51.558Z,50
2019-03-08T08:32:01.092Z,45
2019-03-08T08:33:11.086Z,50
2019-03-08T08:34:21.920Z,55
2019-03-08T08:35:32.053Z,65
2019-03-08T08:36:42.050Z,70
2019-03-08T08:37:52.060Z,70
2019-03-08T08:39:02.027Z,70
2019-03-08T08:40:12.040Z,60
2019-03-08T08:41:22.038Z,50
2019-03-08T08:42:32.004Z,50
2019-03-08T08:43:41.759Z,50
2019-03-08T08:44:53.104Z,55
2019-03-08T08:46:02.705Z,60
2019-03-08T08:47:12.696Z,60
2019-03-08T08:48:24.623Z,60
2019-03-08T08:49:34.846Z,60
2019-03-08T08:50:45.345Z,60
2019-03-08T08:51:55.138Z,55
2019-03-08T08:53:04.873Z,55
2019-03-08T08:54:14.842Z,60
2019-03-08T08:55:24.855Z,55
2019-03-08T08:56:34.831Z,50
2019-03-08T08:57:44.818Z,45
2019-03-08T08:58:54.551Z,45
2019-03-08T09:00:06.681Z,50
2019-03-08T09:01:16.669Z,55
2019-03-08T09:02:26.758Z,65
2019-03-08T09:03:37.087Z,70
2019-03-08T09:04:47.573Z,75
2019-03-08T09:05:59.043Z,65
2019-03-08T09:07:09.392Z,65
2019-03-08T09:08:19.632Z,75
2019-03-08T09:09:30.041Z,75
2019-03-08T09:10:40.278Z,90
2019-03-08T09:12:00.151Z,90
2019-03-08T09:13:10.139Z,95
2019-03-08T09:14:20.125Z,115
2019-03-08T09:15:29.892Z,120
2019-03-08T09:16:39.652Z,105
2019-03-08T09:17:49.388Z,95
2019-03-08T09:18:58.871Z,105
2019-03-08T09:20:09.002Z,115
2019-03-08T09:21:18.999Z,120
2019-03-08T09:22:28.723Z,140
2019-03-08T09:23:38.706Z,160
2019-03-08T09:24:48.705Z,150
2019-03-08T09:25:58.210Z,135
2019-03-08T09:27:08.202Z,145
2019-03-08T09:28:18.202Z,165
2019-03-08T09:29:27.953Z,185
2019-03-08T09:30:37.953Z,165
2019-03-08T09:31:47.940Z,195
2019-03-08T09:33:06.452Z,230
2019-03-08T09:34:16.445Z,225
2019-03-08T09:35:26.220Z,170
2019-03-08T09:36:36.223Z,165
2019-03-08T09:37:45.725Z,145
2019-03-08T09:38:55.468Z,135
2019-03-08T09:40:05.468Z,160
2019-03-08T09:41:15.202Z,200
2019-03-08T09:42:25.214Z,200
2019-03-08T09:43:35.227Z,185
2019-03-08T09:44:45.220Z,220
2019-03-08T09:45:55.633Z,245
2019-03-08T09:47:05.817Z,250
2019-03-08T09:48:16.358Z,270
2019-03-08T09:49:26.674Z,305
2019-03-08T09:50:37.260Z,290
2019-03-08T09:51:47.154Z,260
2019-03-08T09:52:57.109Z,235
2019-03-08T09:54:07.228Z,225
2019-03-08T09:55:17.032Z,230
2019-03-08T09:56:26.766Z,190
2019-03-08T09:57:36.743Z,185
2019-03-08T09:58:46.224Z,200
2019-03-08T09:59:55.963Z,195
2019-03-08T10:01:05.719Z,150
2019-03-08T10:02:15.728Z,165
2019-03-08T10:03:25.444Z,195
2019-03-08T10:04:35.445Z,175
2019-03-08T10:05:45.486Z,160
2019-03-08T10:06:55.491Z,140
2019-03-08T10:08:05.481Z,170
2019-03-08T10:09:15.482Z,210
2019-03-08T10:10:25.470Z,250
2019-03-08T10:11:35.239Z,280
2019-03-08T10:12:44.727Z,280
2019-03-08T10:13:54.742Z,330
2019-03-08T10:15:04.491Z,360
2019-03-08T10:16:14.487Z,370
2019-03-08T10:17:24.212Z,385
2019-03-08T10:18:33.956Z,395
2019-03-08T10:19:43.932Z,390
2019-03-08T10:20:53.696Z,395
2019-03-08T10:22:03.686Z,385
2019-03-08T10:23:22.313Z,475
2019-03-08T10:24:32.065Z,275
2019-03-08T10:25:41.551Z,210
2019-03-08T10:26:51.559Z,195
2019-03-08T10:28:01.561Z,200
2019-03-08T10:29:11.532Z,300
2019-03-08T10:30:21.502Z,330
2019-03-08T10:31:31.540Z,350
2019-03-08T10:32:47.089Z,380
2019-03-08T10:33:57.457Z,360
2019-03-08T10:35:08.244Z,340
2019-03-08T10:36:18.743Z,360
2019-03-08T10:37:28.795Z,425
2019-03-08T10:38:38.647Z,485
2019-03-08T10:39:48.864Z,520
2019-03-08T10:40:58.948Z,1070
2019-03-08T10:42:08.930Z,1240
2019-03-08T10:43:18.909Z,1325
2019-03-08T10:44:28.904Z,670
2019-03-08T10:45:38.906Z,625
2019-03-08T10:46:48.896Z,765
2019-03-08T10:48:05.611Z,775
2019-03-08T10:49:15.619Z,1490
2019-03-08T10:50:25.618Z,1515
2019-03-08T10:51:35.648Z,1400
2019-03-08T10:52:45.636Z,1565
2019-03-08T10:54:03.036Z,1575
2019-03-08T10:55:12.819Z,1475
2019-03-08T10:56:22.556Z,1465
2019-03-08T10:57:32.589Z,845
2019-03-08T10:58:42.606Z,910
2019-03-08T10:59:52.359Z,805
2019-03-08T11:01:02.122Z,1105
2019-03-08T11:02:12.122Z,1025
2019-03-08T11:03:21.872Z,1260
2019-03-08T11:04:31.612Z,1205
2019-03-08T11:05:41.593Z,760
2019-03-08T11:06:51.334Z,580
2019-03-08T11:08:01.325Z,675
2019-03-08T11:09:11.303Z,735
2019-03-08T11:10:21.306Z,835
2019-03-08T11:11:31.320Z,830
2019-03-08T11:12:41.086Z,870
2019-03-08T11:13:52.646Z,1150
2019-03-08T11:15:02.964Z,1245
2019-03-08T11:16:13.435Z,1830
2019-03-08T11:17:24.107Z,1825
2019-03-08T11:18:34.610Z,1200
2019-03-08T11:19:45.169Z,960
2019-03-08T11:20:56.242Z,855
2019-03-08T11:22:06.405Z,605
2019-03-08T11:23:16.133Z,470
2019-03-08T11:24:26.097Z,420
2019-03-08T11:25:44.184Z,375
2019-03-08T11:26:53.934Z,315
2019-03-08T11:28:03.935Z,315
2019-03-08T11:29:13.663Z,285
2019-03-08T11:30:24.285Z,350
2019-03-08T11:31:34.893Z,935
2019-03-08T11:32:46.349Z,230
2019-03-08T11:33:56.461Z,235
2019-03-08T11:35:06.250Z,235
2019-03-08T11:36:15.987Z,195
2019-03-08T11:37:27.171Z,165
2019-03-08T11:38:37.555Z,150
2019-03-08T11:39:47.303Z,160
2019-03-08T11:40:57.973Z,190
2019-03-08T11:42:07.958Z,155
2019-03-08T11:43:17.942Z,130
2019-03-08T11:44:27.966Z,155
2019-03-08T11:45:37.964Z,115
2019-03-08T11:46:47.958Z,85
2019-03-08T11:47:57.708Z,85
2019-03-08T11:49:07.455Z,95
2019-03-08T11:50:17.457Z,90
2019-03-08T11:51:26.947Z,85
2019-03-08T11:52:36.937Z,130
2019-03-08T11:53:55.745Z,180
2019-03-08T11:55:06.344Z,320
2019-03-08T11:56:16.797Z,665
2019-03-08T11:57:27.108Z,615
2019-03-08T11:58:37.094Z,1535
2019-03-08T11:59:47.205Z,1365
2019-03-08T12:00:58.021Z,740
2019-03-08T12:02:08.291Z,605
2019-03-08T12:03:18.278Z,550
2019-03-08T12:04:28.016Z,530
2019-03-08T12:05:38.027Z,520
2019-03-08T12:06:48.040Z,515
2019-03-08T12:07:58.009Z,615
2019-03-08T12:09:07.516Z,1265
2019-03-08T12:10:17.000Z,2070
2019-03-08T12:11:27.008Z,2290
2019-03-08T12:12:36.764Z,2270
2019-03-08T12:13:47.130Z,2270
2019-03-08T12:14:57.137Z,2295
2019-03-08T12:16:06.885Z,2205
2019-03-08T12:17:16.870Z,2210
2019-03-08T12:18:26.853Z,2260
2019-03-08T12:19:36.875Z,2235
2019-03-08T12:20:46.624Z,1785
2019-03-08T12:21:56.401Z,2325
2019-03-08T12:23:06.504Z,895
2019-03-08T12:24:16.499Z,745
2019-03-08T12:25:26.523Z,1355
2019-03-08T12:26:36.300Z,2050
2019-03-08T12:27:45.835Z,2045
2019-03-08T12:28:55.906Z,2000
2019-03-08T12:30:06.910Z,2070
2019-03-08T12:31:16.913Z,2265
2019-03-08T12:32:28.393Z,1425
2019-03-08T12:33:38.391Z,2135
2019-03-08T12:34:48.400Z,2165
2019-03-08T12:35:58.133Z,2230
2019-03-08T12:37:08.136Z,2195
2019-03-08T12:38:17.875Z,2040
2019-03-08T12:39:27.633Z,1445
2019-03-08T12:40:37.398Z,1200
2019-03-08T12:41:47.964Z,775
2019-03-08T12:42:59.099Z,645
2019-03-08T12:44:15.287Z,640
2019-03-08T12:45:25.491Z,745
2019-03-08T12:46:35.485Z,2560
2019-03-08T12:47:45.490Z,2395
2019-03-08T12:48:57.210Z,2355
2019-03-08T12:50:07.265Z,2215
2019-03-08T12:51:17.311Z,2310
2019-03-08T12:52:27.058Z,2415
2019-03-08T12:53:36.578Z,2485
2019-03-08T12:54:46.347Z,2525
2019-03-08T12:55:56.344Z,2480
2019-03-08T12:57:06.353Z,2520
2019-03-08T12:58:16.353Z,2685
2019-03-08T12:59:26.373Z,2610
2019-03-08T13:00:36.354Z,2680
2019-03-08T13:01:46.373Z,1510
2019-03-08T13:02:56.121Z,600
2019-03-08T13:04:06.151Z,580
2019-03-08T13:05:16.173Z,470
2019-03-08T13:06:26.190Z,570
2019-03-08T13:07:38.169Z,485
2019-03-08T13:08:48.191Z,2210
2019-03-08T13:09:57.969Z,755
2019-03-08T13:11:07.442Z,565
2019-03-08T13:12:17.201Z,495
2019-03-08T13:13:27.200Z,2660
2019-03-08T13:14:37.202Z,1130
2019-03-08T13:15:47.206Z,2060
2019-03-08T13:16:56.994Z,2740
2019-03-08T13:18:06.990Z,1265
2019-03-08T13:19:16.976Z,500
2019-03-08T13:20:26.969Z,665
2019-03-08T13:21:36.996Z,640
2019-03-08T13:22:46.985Z,2610
2019-03-08T13:23:56.969Z,650
2019-03-08T13:25:07.680Z,915
2019-03-08T13:26:18.148Z,745
2019-03-08T13:27:28.376Z,1260
2019-03-08T13:28:38.921Z,2885
2019-03-08T13:29:49.128Z,765
2019-03-08T13:30:59.691Z,1580
2019-03-08T13:32:09.473Z,570
2019-03-08T13:33:19.627Z,490
2019-03-08T13:34:29.741Z,890
2019-03-08T13:35:39.473Z,645
2019-03-08T13:36:49.687Z,2385
2019-03-08T13:37:59.439Z,465
2019-03-08T13:39:09.195Z,450
2019-03-08T13:40:19.197Z,1180
2019-03-08T13:41:29.193Z,630
2019-03-08T13:42:39.195Z,595
2019-03-08T13:43:49.180Z,1080
2019-03-08T13:44:59.195Z,2715
2019-03-08T13:46:08.946Z,2685
2019-03-08T13:47:18.719Z,1075
2019-03-08T13:48:28.702Z,2460
2019-03-08T13:49:38.426Z,950
2019-03-08T13:50:48.179Z,495
2019-03-08T13:51:58.175Z,375
2019-03-08T13:53:08.211Z,415
2019-03-08T13:54:17.970Z,1390
2019-03-08T13:55:27.986Z,500
2019-03-08T13:56:37.766Z,2430
2019-03-08T13:57:47.793Z,2400
2019-03-08T13:58:57.804Z,1705
2019-03-08T14:00:07.821Z,875
2019-03-08T14:01:17.853Z,2540
2019-03-08T14:02:27.833Z,2530
2019-03-08T14:03:37.590Z,2580
2019-03-08T14:04:47.334Z,2595
2019-03-08T14:05:56.841Z,2530
2019-03-08T14:07:06.605Z,2275
2019-03-08T14:08:16.669Z,1750
2019-03-08T14:09:26.401Z,1440
2019-03-08T14:10:36.156Z,785
2019-03-08T14:11:46.138Z,2405
2019-03-08T14:12:55.897Z,540
2019-03-08T14:14:05.663Z,2695
2019-03-08T14:15:15.677Z,2695
2019-03-08T14:16:25.172Z,2545
2019-03-08T14:17:34.686Z,2265
2019-03-08T14:18:44.437Z,2645
2019-03-08T14:19:54.431Z,2685
2019-03-08T14:21:04.424Z,730
2019-03-08T14:22:14.417Z,2115
2019-03-08T14:23:24.701Z,2750
2019-03-08T14:24:35.144Z,2720
2019-03-08T14:25:45.946Z,575
2019-03-08T14:26:56.263Z,700
2019-03-08T14:28:06.657Z,2555
2019-03-08T14:29:18.724Z,2575
2019-03-08T14:30:32.014Z,2505
2019-03-08T14:31:45.270Z,2480
2019-03-08T14:32:57.848Z,1245
2019-03-08T14:34:10.357Z,1035
2019-03-08T14:35:25.991Z,725
2019-03-08T14:36:39.065Z,655
2019-03-08T14:37:58.113Z,480
2019-03-08T14:39:13.495Z,380
2019-03-08T14:40:29.117Z,365
2019-03-08T14:41:40.371Z,345
2019-03-08T14:42:51.417Z,830
2019-03-08T14:44:02.231Z,2045
2019-03-08T14:45:16.684Z,2085
2019-03-08T14:46:30.302Z,2220
2019-03-08T14:47:43.102Z,2200
2019-03-08T14:48:56.114Z,2210
2019-03-08T14:50:08.981Z,2250
2019-03-08T14:51:22.709Z,2200
2019-03-08T14:52:32.680Z,2245
2019-03-08T14:53:43.990Z,2290
2019-03-08T14:54:57.198Z,2250
2019-03-08T14:56:08.839Z,2160
2019-03-08T14:57:33.970Z,2080
2019-03-08T14:58:47.794Z,2045
2019-03-08T15:00:02.088Z,2105
2019-03-08T15:01:15.578Z,2170
2019-03-08T15:02:25.285Z,2150
2019-03-08T15:03:43.091Z,2085
2019-03-08T15:04:53.596Z,1990
2019-03-08T15:06:06.485Z,1875
2019-03-08T15:07:16.216Z,1920
2019-03-08T15:08:27.608Z,1905
2019-03-08T15:09:40.508Z,1775
2019-03-08T15:10:56.194Z,1815
2019-03-08T15:12:18.666Z,1625
2019-03-08T15:13:32.153Z,1880
2019-03-08T15:14:44.929Z,1800
2019-03-08T15:15:57.780Z,1800
2019-03-08T15:17:20.908Z,1760
2019-03-08T15:18:34.406Z,1695
2019-03-08T15:19:49.318Z,1680
2019-03-08T15:21:03.510Z,1800
2019-03-08T15:22:13.245Z,1765
2019-03-08T15:23:27.543Z,1645
2019-03-08T15:24:45.560Z,1615
2019-03-08T15:25:58.840Z,1745
2019-03-08T15:27:09.366Z,1150
2019-03-08T15:28:19.496Z,540
2019-03-08T15:29:29.541Z,1080
2019-03-08T15:30:39.998Z,1550
2019-03-08T15:31:50.274Z,1510
2019-03-08T15:33:00.405Z,1535
2019-03-08T15:34:09.892Z,1510
2019-03-08T15:35:19.886Z,1415
2019-03-08T15:36:29.893Z,650
2019-03-08T15:37:48.852Z,1225
2019-03-08T15:39:08.080Z,1060
2019-03-08T15:40:17.824Z,525
2019-03-08T15:41:33.791Z,1330
2019-03-08T15:42:46.212Z,1375
2019-03-08T15:43:58.280Z,1335
2019-03-08T15:45:13.101Z,1305
2019-03-08T15:46:29.382Z,1270
2019-03-08T15:47:45.392Z,1050
2019-03-08T15:49:02.160Z,725
2019-03-08T15:50:15.664Z,1085
2019-03-08T15:51:30.267Z,1175
2019-03-08T15:52:40.243Z,1190
2019-03-08T15:53:49.990Z,1150
2019-03-08T15:54:59.976Z,1100
2019-03-08T15:56:09.970Z,1030
2019-03-08T15:57:19.684Z,1005
2019-03-08T15:58:29.424Z,1020
2019-03-08T15:59:39.404Z,965
2019-03-08T16:00:49.426Z,880
2019-03-08T16:02:01.934Z,900
2019-03-08T16:03:12.178Z,905
2019-03-08T16:04:23.869Z,880
2019-03-08T16:05:38.282Z,855
2019-03-08T16:06:51.636Z,840
2019-03-08T16:08:08.755Z,800
2019-03-08T16:09:19.016Z,710
2019-03-08T16:10:29.005Z,665
2019-03-08T16:11:39.014Z,680
2019-03-08T16:12:48.988Z,635
2019-03-08T16:14:08.204Z,610
2019-03-08T16:15:18.155Z,455
2019-03-08T16:16:27.899Z,310
2019-03-08T16:17:39.151Z,180
2019-03-08T16:18:53.032Z,150
2019-03-08T16:20:07.884Z,135
2019-03-08T16:21:20.402Z,130
2019-03-08T16:22:34.307Z,120
2019-03-08T16:23:43.832Z,115
2019-03-08T16:24:53.334Z,110
2019-03-08T16:26:03.316Z,115
2019-03-08T16:27:13.556Z,110
2019-03-08T16:28:24.089Z,105
2019-03-08T16:29:34.305Z,100
2019-03-08T16:30:47.394Z,100
2019-03-08T16:31:59.801Z,90
2019-03-08T16:33:09.730Z,85
2019-03-08T16:34:19.713Z,85
2019-03-08T16:35:29.686Z,80